Time;durP1;ratioP1;P1;durP2;ratioP2;P2;SDS_P1;SDS_P2;PMS_P1;PMS_P2;Temp;Humidity;BMP_temperature;BMP_pressure;BME280_temperature;BME280_humidity;BME280_pressure;Samples;Min_cycle;Max_cycle;Signal;HPM_P1;HPM_P2
2024/01/06 00:01:45;;;;;;;15.85;9.27;;;;;;;;;;4988861;28;20503;-82
2024/01/06 00:04:10;;;;;;;16.23;9.35;;;;;;;;;;4992252;28;20030;-82
2024/01/06 00:06:35;;;;;;;16.42;9.18;;;;;;;;;;4993085;28;20105;-82
2024/01/06 00:09:01;;;;;;;16.65;9.52;;;;;;;;;;4992122;28;20061;-82
2024/01/06 00:11:26;;;;;;;15.38;9.05;;;;;;;;;;4994475;28;20021;-82
2024/01/06 00:13:52;;;;;;;17.40;8.73;;;;;;;;;;4990960;28;20392;-82
2024/01/06 00:16:21;;;;;;;16.02;9.18;;;;;;;;;;4999788;28;20021;-82
2024/01/06 00:18:50;;;;;;;17.70;9.30;;;;;;;;;;4992220;28;20109;-82
2024/01/06 00:21:16;;;;;;;17.55;9.18;;;;;;;;;;4990314;28;20485;-82
2024/01/06 00:23:41;;;;;;;15.52;9.25;;;;;;;;;;4991283;28;20106;-82
2024/01/06 00:26:07;;;;;;;19.85;9.32;;;;;;;;;;4991955;28;20366;-83
2024/01/06 00:28:32;;;;;;;16.85;9.05;;;;;;;;;;4994360;28;20485;-82
2024/01/06 00:31:00;;;;;;;13.60;8.45;;;;;;;;;;4991663;28;20396;-82
2024/01/06 00:33:25;;;;;;;15.57;8.98;;;;;;;;;;4991857;28;20409;-82
2024/01/06 00:35:53;;;;;;;14.77;8.43;;;;;;;;;;4990881;28;20076;-82
2024/01/06 00:38:19;;;;;;;14.77;8.63;;;;;;;;;;4994255;28;20496;-82
2024/01/06 00:40:45;;;;;;;17.98;8.57;;;;;;;;;;4995994;28;20026;-82
2024/01/06 00:43:12;;;;;;;12.40;7.57;;;;;;;;;;5005784;28;20026;-82
2024/01/06 00:45:39;;;;;;;14.07;8.07;;;;;;;;;;4987904;28;20113;-82
2024/01/06 00:48:05;;;;;;;14.88;8.05;;;;;;;;;;4986313;28;20026;-82
2024/01/06 00:50:34;;;;;;;14.70;8.48;;;;;;;;;;4993056;28;20033;-82
2024/01/06 00:52:59;;;;;;;14.68;8.60;;;;;;;;;;5001828;28;20030;-82
2024/01/06 00:55:26;;;;;;;13.50;7.78;;;;;;;;;;4991582;28;20030;-82
2024/01/06 00:57:51;;;;;;;15.38;9.23;;;;;;;;;;4996128;28;20036;-82
2024/01/06 01:00:17;;;;;;;14.68;8.98;;;;;;;;;;4993829;28;20118;-82
2024/01/06 01:02:42;;;;;;;15.38;8.25;;;;;;;;;;5000292;28;20030;-82
2024/01/06 01:05:08;;;;;;;15.27;8.80;;;;;;;;;;4991840;28;20400;-82
2024/01/06 01:07:35;;;;;;;14.77;8.18;;;;;;;;;;4995936;28;20045;-82
2024/01/06 01:10:04;;;;;;;14.82;7.70;;;;;;;;;;4996745;28;20129;-82
2024/01/06 01:12:30;;;;;;;14.25;7.88;;;;;;;;;;4999371;28;20110;-82
2024/01/06 01:14:57;;;;;;;14.88;8.35;;;;;;;;;;4995826;28;20113;-82
2024/01/06 01:17:25;;;;;;;14.25;7.97;;;;;;;;;;4996343;28;20116;-82
2024/01/06 01:19:52;;;;;;;13.13;7.88;;;;;;;;;;4996969;28;20030;-82
2024/01/06 01:22:19;;;;;;;12.38;7.45;;;;;;;;;;5005158;28;20034;-82
2024/01/06 01:24:44;;;;;;;12.45;7.50;;;;;;;;;;5001438;28;20022;-82
2024/01/06 01:27:11;;;;;;;13.68;7.68;;;;;;;;;;4996658;28;20034;-82
2024/01/06 01:29:38;;;;;;;11.20;7.10;;;;;;;;;;4995065;28;20053;-82
2024/01/06 01:32:04;;;;;;;11.30;6.50;;;;;;;;;;4995155;28;20026;-82
2024/01/06 01:34:32;;;;;;;11.45;6.15;;;;;;;;;;4997962;28;20041;-82
2024/01/06 01:37:00;;;;;;;9.55;5.75;;;;;;;;;;4986753;28;20030;-82
2024/01/06 01:39:27;;;;;;;11.13;6.47;;;;;;;;;;4993323;28;20035;-82
2024/01/06 01:41:55;;;;;;;13.90;6.00;;;;;;;;;;4992836;28;20485;-82
2024/01/06 01:44:20;;;;;;;9.10;5.22;;;;;;;;;;5000071;28;20033;-82
2024/01/06 01:46:47;;;;;;;9.75;5.70;;;;;;;;;;4993563;28;20026;-82
2024/01/06 01:49:14;;;;;;;8.65;5.45;;;;;;;;;;4995730;28;20026;-82
2024/01/06 01:51:39;;;;;;;10.70;5.93;;;;;;;;;;4994728;28;20034;-82
2024/01/06 01:54:06;;;;;;;10.27;5.90;;;;;;;;;;4998441;28;20026;-81
2024/01/06 01:56:33;;;;;;;9.07;5.68;;;;;;;;;;4998514;28;20109;-82
2024/01/06 01:59:03;;;;;;;9.70;5.75;;;;;;;;;;4995206;28;20030;-82
2024/01/06 02:04:02;;;;;;;8.32;5.35;;;;;;;;;;5045989;28;20052;-80
2024/01/06 02:06:27;;;;;;;8.55;5.20;;;;;;;;;;5046162;28;20406;-78
2024/01/06 02:08:53;;;;;;;8.30;5.30;;;;;;;;;;5049560;28;20144;-79
2024/01/06 02:11:19;;;;;;;11.23;6.00;;;;;;;;;;5051037;28;20177;-78
2024/01/06 02:13:44;;;;;;;8.75;5.25;;;;;;;;;;5050349;28;20036;-78
2024/01/06 02:16:09;;;;;;;8.90;5.28;;;;;;;;;;5047725;28;20402;-78
2024/01/06 02:18:35;;;;;;;8.43;5.03;;;;;;;;;;5050696;28;20471;-78
2024/01/06 02:21:01;;;;;;;10.88;5.35;;;;;;;;;;5046495;28;20039;-79
2024/01/06 02:23:28;;;;;;;9.07;5.63;;;;;;;;;;5063704;28;20021;-78
2024/01/06 02:25:54;;;;;;;8.35;5.22;;;;;;;;;;5049897;28;20024;-78
2024/01/06 02:28:19;;;;;;;9.82;5.60;;;;;;;;;;5040393;28;20521;-78
2024/01/06 02:30:46;;;;;;;8.38;5.70;;;;;;;;;;5037829;28;20033;-78
2024/01/06 02:33:11;;;;;;;7.88;5.15;;;;;;;;;;5041323;28;20031;-78
2024/01/06 02:35:37;;;;;;;8.05;5.22;;;;;;;;;;5049312;28;20036;-78
2024/01/06 02:38:03;;;;;;;8.13;5.50;;;;;;;;;;5048889;28;20025;-79
2024/01/06 02:40:28;;;;;;;8.20;5.03;;;;;;;;;;5036190;28;20057;-79
2024/01/06 02:42:54;;;;;;;9.35;5.05;;;;;;;;;;5030153;28;20387;-79
2024/01/06 02:45:20;;;;;;;6.45;4.15;;;;;;;;;;5031664;28;20029;-78
2024/01/06 02:47:45;;;;;;;6.63;4.22;;;;;;;;;;5048015;28;20034;-78
2024/01/06 02:50:10;;;;;;;7.10;4.57;;;;;;;;;;5031152;28;20502;-79
2024/01/06 02:52:36;;;;;;;7.38;4.70;;;;;;;;;;5028609;28;20123;-79
2024/01/06 02:55:01;;;;;;;7.70;5.10;;;;;;;;;;5032043;28;20028;-79
2024/01/06 02:57:29;;;;;;;9.18;5.38;;;;;;;;;;5026901;28;20029;-78
2024/01/06 02:59:54;;;;;;;10.70;5.78;;;;;;;;;;5033195;28;20068;-78
2024/01/06 03:02:20;;;;;;;8.57;5.70;;;;;;;;;;5030178;28;20445;-78
2024/01/06 03:04:45;;;;;;;9.75;5.88;;;;;;;;;;5034010;28;20516;-79
2024/01/06 03:07:11;;;;;;;10.02;5.97;;;;;;;;;;5029148;28;20029;-78
2024/01/06 03:09:38;;;;;;;9.02;6.00;;;;;;;;;;5035834;28;20036;-79
2024/01/06 03:12:07;;;;;;;8.30;5.72;;;;;;;;;;5029551;28;20049;-78
2024/01/06 03:14:34;;;;;;;8.98;5.85;;;;;;;;;;5031964;28;20036;-79
2024/01/06 03:17:00;;;;;;;9.20;5.80;;;;;;;;;;5032266;28;20025;-79
2024/01/06 03:19:27;;;;;;;10.40;6.93;;;;;;;;;;5029833;28;20380;-88
2024/01/06 03:21:53;;;;;;;10.65;7.30;;;;;;;;;;5035024;28;20021;-88
2024/01/06 03:24:18;;;;;;;10.52;6.68;;;;;;;;;;5033182;28;20479;-87
2024/01/06 03:26:44;;;;;;;9.13;6.05;;;;;;;;;;5034611;28;20426;-88
2024/01/06 03:29:09;;;;;;;9.90;6.10;;;;;;;;;;5040044;28;20518;-87
2024/01/06 03:31:35;;;;;;;9.38;6.05;;;;;;;;;;5029110;28;20412;-88
2024/01/06 03:34:00;;;;;;;8.00;5.55;;;;;;;;;;5030238;28;20029;-88
2024/01/06 03:36:25;;;;;;;7.57;5.07;;;;;;;;;;5036329;28;20029;-88
2024/01/06 03:38:51;;;;;;;8.45;5.90;;;;;;;;;;5034019;28;20029;-87
2024/01/06 03:41:16;;;;;;;11.32;6.03;;;;;;;;;;5036719;28;20060;-88
2024/01/06 03:43:43;;;;;;;9.10;6.22;;;;;;;;;;5035249;28;20548;-89
2024/01/06 03:46:10;;;;;;;8.80;6.20;;;;;;;;;;5036225;28;20034;-88
2024/01/06 03:48:36;;;;;;;10.48;5.95;;;;;;;;;;5043623;28;21243;-88
2024/01/06 03:51:03;;;;;;;10.27;6.72;;;;;;;;;;5032783;28;20032;-88
2024/01/06 03:53:28;;;;;;;10.90;6.55;;;;;;;;;;5028624;28;20048;-89
2024/01/06 03:55:54;;;;;;;9.75;6.20;;;;;;;;;;5027420;28;20022;-88
2024/01/06 03:58:19;;;;;;;9.05;5.90;;;;;;;;;;5029210;28;20021;-89
2024/01/06 04:00:44;;;;;;;10.57;5.47;;;;;;;;;;5026940;28;20133;-88
2024/01/06 04:03:10;;;;;;;9.57;6.13;;;;;;;;;;5030800;28;20484;-88
2024/01/06 04:05:35;;;;;;;9.60;6.10;;;;;;;;;;5012702;28;20103;-87
2024/01/06 04:08:01;;;;;;;10.02;6.60;;;;;;;;;;5028606;28;20040;-88
2024/01/06 04:10:26;;;;;;;11.32;6.65;;;;;;;;;;5028915;28;20087;-88
2024/01/06 04:12:51;;;;;;;9.07;6.03;;;;;;;;;;5028781;28;20043;-88
2024/01/06 04:15:17;;;;;;;9.50;6.18;;;;;;;;;;5030002;28;20399;-88
2024/01/06 04:17:42;;;;;;;9.80;6.35;;;;;;;;;;5030553;28;20026;-88
2024/01/06 04:20:12;;;;;;;10.30;5.95;;;;;;;;;;5031811;28;20036;-88
2024/01/06 04:22:37;;;;;;;9.02;5.45;;;;;;;;;;5029492;28;20488;-88
2024/01/06 04:25:03;;;;;;;10.27;5.95;;;;;;;;;;5027426;28;20041;-89
2024/01/06 04:27:29;;;;;;;10.75;6.28;;;;;;;;;;5028977;28;20135;-88
2024/01/06 04:29:54;;;;;;;8.27;5.72;;;;;;;;;;5028559;28;20048;-79
2024/01/06 04:32:20;;;;;;;10.25;6.07;;;;;;;;;;5028739;28;20535;-78
2024/01/06 04:34:45;;;;;;;9.35;6.20;;;;;;;;;;5027957;28;20487;-78
2024/01/06 04:37:10;;;;;;;9.20;5.93;;;;;;;;;;5029169;28;20113;-79
2024/01/06 04:39:36;;;;;;;8.60;6.05;;;;;;;;;;5025007;28;20021;-78
2024/01/06 04:42:01;;;;;;;10.15;6.05;;;;;;;;;;5027193;28;20120;-79
2024/01/06 04:44:26;;;;;;;9.88;6.43;;;;;;;;;;5033315;28;20029;-78
2024/01/06 04:46:52;;;;;;;10.90;5.88;;;;;;;;;;5032890;28;20374;-79
2024/01/06 04:49:17;;;;;;;9.25;5.97;;;;;;;;;;5034461;28;20026;-78
2024/01/06 04:51:43;;;;;;;8.93;6.07;;;;;;;;;;5030676;28;20399;-78
2024/01/06 04:54:08;;;;;;;9.45;5.90;;;;;;;;;;5031229;28;20531;-78
2024/01/06 04:56:33;;;;;;;9.70;6.40;;;;;;;;;;5028290;28;20108;-79
2024/01/06 04:58:59;;;;;;;10.15;6.10;;;;;;;;;;5030450;28;20049;-80
2024/01/06 05:01:24;;;;;;;9.43;5.90;;;;;;;;;;5030516;28;20152;-79
2024/01/06 05:03:50;;;;;;;10.15;6.22;;;;;;;;;;5032671;28;20115;-78
2024/01/06 05:06:15;;;;;;;9.82;6.03;;;;;;;;;;5034642;28;20482;-78
2024/01/06 05:08:44;;;;;;;8.40;5.45;;;;;;;;;;5030860;28;20033;-78
2024/01/06 05:11:10;;;;;;;9.30;6.05;;;;;;;;;;5034056;28;20102;-78
2024/01/06 05:13:35;;;;;;;10.20;6.22;;;;;;;;;;5027453;28;20095;-78
2024/01/06 05:16:01;;;;;;;9.65;6.32;;;;;;;;;;5034807;28;20496;-78
2024/01/06 05:18:27;;;;;;;10.45;6.18;;;;;;;;;;5030513;28;20091;-78
2024/01/06 05:20:52;;;;;;;10.57;6.20;;;;;;;;;;5031022;28;20113;-78
2024/01/06 05:23:19;;;;;;;9.52;5.82;;;;;;;;;;5035890;28;20082;-78
2024/01/06 05:25:46;;;;;;;11.63;7.22;;;;;;;;;;5033804;28;20190;-79
2024/01/06 05:28:11;;;;;;;12.90;6.68;;;;;;;;;;5035992;28;20032;-78
2024/01/06 05:30:36;;;;;;;14.60;6.65;;;;;;;;;;5038537;28;20025;-77
2024/01/06 05:33:03;;;;;;;11.27;6.82;;;;;;;;;;5032130;28;20403;-78
2024/01/06 05:35:29;;;;;;;10.68;6.50;;;;;;;;;;5038591;28;20411;-78
2024/01/06 05:37:54;;;;;;;11.18;6.43;;;;;;;;;;5035258;28;20030;-87
2024/01/06 05:40:20;;;;;;;10.82;6.60;;;;;;;;;;5032343;28;20030;-78
2024/01/06 05:42:45;;;;;;;10.20;6.35;;;;;;;;;;5022650;28;20120;-78
2024/01/06 05:45:14;;;;;;;10.45;6.45;;;;;;;;;;5033036;28;20040;-78
2024/01/06 05:47:39;;;;;;;10.15;6.25;;;;;;;;;;5032146;28;20032;-78
2024/01/06 05:50:06;;;;;;;11.63;6.55;;;;;;;;;;5041130;28;20124;-78
2024/01/06 05:52:31;;;;;;;10.45;6.45;;;;;;;;;;5034715;28;20033;-77
2024/01/06 05:54:58;;;;;;;12.27;6.70;;;;;;;;;;5034316;28;20502;-77
2024/01/06 05:57:23;;;;;;;10.15;6.68;;;;;;;;;;5027505;28;20488;-78
2024/01/06 05:59:49;;;;;;;11.32;6.97;;;;;;;;;;5033481;28;20132;-77
2024/01/06 06:02:14;;;;;;;10.82;6.35;;;;;;;;;;5032927;28;20025;-78
2024/01/06 06:04:39;;;;;;;10.75;6.63;;;;;;;;;;5029715;28;20091;-78
2024/01/06 06:07:05;;;;;;;15.02;6.50;;;;;;;;;;5034029;28;20447;-79
2024/01/06 06:09:30;;;;;;;9.95;6.25;;;;;;;;;;5034946;28;20055;-78
2024/01/06 06:11:56;;;;;;;11.70;6.90;;;;;;;;;;5033116;28;20040;-78
2024/01/06 06:14:21;;;;;;;10.07;5.88;;;;;;;;;;5031877;28;20025;-78
2024/01/06 06:16:47;;;;;;;10.07;6.53;;;;;;;;;;5030439;28;20427;-78
2024/01/06 06:19:13;;;;;;;11.68;6.25;;;;;;;;;;5027209;28;20024;-78
2024/01/06 06:21:38;;;;;;;11.23;6.65;;;;;;;;;;5030132;28;20113;-78
2024/01/06 06:24:04;;;;;;;10.75;6.25;;;;;;;;;;5033153;28;20026;-79
2024/01/06 06:26:30;;;;;;;10.05;6.00;;;;;;;;;;5041513;28;20070;-78
2024/01/06 06:28:56;;;;;;;10.18;6.50;;;;;;;;;;5046328;28;20178;-79
2024/01/06 06:31:21;;;;;;;11.90;6.32;;;;;;;;;;5032871;28;20489;-79
2024/01/06 06:33:47;;;;;;;10.93;6.38;;;;;;;;;;5034907;28;20458;-79
2024/01/06 06:36:12;;;;;;;13.50;6.97;;;;;;;;;;5030354;28;20029;-78
2024/01/06 06:38:38;;;;;;;10.60;6.70;;;;;;;;;;5025967;28;20185;-79
2024/01/06 06:41:03;;;;;;;9.65;6.20;;;;;;;;;;5028397;28;20476;-78
2024/01/06 06:43:28;;;;;;;9.43;6.25;;;;;;;;;;5020833;28;20071;-79
2024/01/06 06:45:55;;;;;;;9.57;6.68;;;;;;;;;;5028178;28;20033;-79
2024/01/06 06:48:21;;;;;;;10.13;6.13;;;;;;;;;;5032386;28;20152;-78
2024/01/06 06:50:46;;;;;;;9.73;6.35;;;;;;;;;;5026150;28;20072;-79
2024/01/06 06:53:12;;;;;;;9.57;6.28;;;;;;;;;;5031774;28;20035;-79
2024/01/06 06:55:40;;;;;;;13.15;7.00;;;;;;;;;;5029947;28;20037;-79
2024/01/06 06:58:06;;;;;;;9.65;6.25;;;;;;;;;;5028360;28;20025;-78
2024/01/06 07:00:32;;;;;;;15.23;7.05;;;;;;;;;;5027237;28;20598;-78
2024/01/06 07:02:59;;;;;;;11.55;7.03;;;;;;;;;;5041849;28;20112;-78
2024/01/06 07:05:25;;;;;;;11.18;6.15;;;;;;;;;;5023352;28;20535;-78
2024/01/06 07:07:50;;;;;;;10.40;6.63;;;;;;;;;;5031527;28;20029;-78
2024/01/06 07:10:16;;;;;;;11.35;6.47;;;;;;;;;;5025905;28;20025;-79
2024/01/06 07:12:41;;;;;;;9.68;6.65;;;;;;;;;;5032709;28;20546;-79
2024/01/06 07:15:09;;;;;;;10.55;6.22;;;;;;;;;;5029372;28;20105;-78
2024/01/06 07:17:35;;;;;;;9.68;6.43;;;;;;;;;;5030989;28;20074;-79
2024/01/06 07:20:02;;;;;;;9.00;6.13;;;;;;;;;;5046711;28;20067;-79
2024/01/06 07:22:27;;;;;;;11.55;7.00;;;;;;;;;;5044698;28;20025;-79
2024/01/06 07:24:53;;;;;;;10.93;6.38;;;;;;;;;;5029893;28;20036;-78
2024/01/06 07:27:18;;;;;;;10.98;6.75;;;;;;;;;;5024208;28;20480;-79
2024/01/06 07:29:44;;;;;;;12.43;6.45;;;;;;;;;;5031282;28;20033;-79
2024/01/06 07:32:09;;;;;;;12.45;7.55;;;;;;;;;;5028533;28;20083;-79
2024/01/06 07:34:34;;;;;;;12.20;7.47;;;;;;;;;;5026773;28;20033;-79
2024/01/06 07:37:00;;;;;;;13.00;6.53;;;;;;;;;;5027709;28;20108;-79
2024/01/06 07:39:25;;;;;;;9.43;6.30;;;;;;;;;;5025404;28;20518;-79
2024/01/06 07:41:51;;;;;;;13.23;7.10;;;;;;;;;;5025897;28;20033;-79
2024/01/06 07:44:22;;;;;;;12.20;7.32;;;;;;;;;;5029562;28;20031;-78
2024/01/06 07:46:48;;;;;;;11.23;7.30;;;;;;;;;;5028404;28;20053;-79
2024/01/06 07:49:14;;;;;;;13.20;6.90;;;;;;;;;;5030607;28;20052;-79
2024/01/06 07:51:39;;;;;;;11.80;6.75;;;;;;;;;;5030953;28;20057;-79
2024/01/06 07:54:06;;;;;;;12.98;7.10;;;;;;;;;;5043953;28;20075;-78
2024/01/06 07:56:31;;;;;;;10.40;6.28;;;;;;;;;;5044102;28;20026;-79
2024/01/06 07:58:57;;;;;;;11.40;6.90;;;;;;;;;;5027021;28;20030;-79
2024/01/06 08:01:22;;;;;;;10.52;6.88;;;;;;;;;;5026152;28;20550;-79
2024/01/06 08:03:48;;;;;;;11.70;6.88;;;;;;;;;;5039298;28;20395;-78
2024/01/06 08:06:13;;;;;;;11.40;6.75;;;;;;;;;;5028610;28;20041;-79
2024/01/06 08:08:38;;;;;;;11.40;7.28;;;;;;;;;;5027745;28;20029;-79
2024/01/06 08:11:04;;;;;;;10.95;7.00;;;;;;;;;;5028720;28;20492;-79
2024/01/06 08:13:29;;;;;;;9.98;6.68;;;;;;;;;;5027415;28;20028;-79
2024/01/06 08:15:55;;;;;;;12.38;7.30;;;;;;;;;;5027872;28;20022;-79
2024/01/06 08:18:21;;;;;;;11.57;6.50;;;;;;;;;;5023495;28;20021;-79
2024/01/06 08:20:47;;;;;;;10.85;6.88;;;;;;;;;;5025641;28;20172;-79
2024/01/06 08:23:12;;;;;;;12.52;6.50;;;;;;;;;;5028671;28;20116;-79
2024/01/06 08:25:37;;;;;;;11.15;7.20;;;;;;;;;;5028423;28;20033;-79
2024/01/06 08:28:03;;;;;;;9.82;6.60;;;;;;;;;;5026222;28;20056;-79
2024/01/06 08:30:29;;;;;;;11.85;7.38;;;;;;;;;;5024764;28;20580;-79
2024/01/06 08:32:54;;;;;;;13.32;7.13;;;;;;;;;;5023335;28;20025;-78
2024/01/06 08:35:20;;;;;;;10.75;6.25;;;;;;;;;;5024598;28;20030;-78
2024/01/06 08:37:45;;;;;;;11.27;7.18;;;;;;;;;;5022112;28;20415;-78
2024/01/06 08:40:11;;;;;;;14.40;6.70;;;;;;;;;;5021636;28;20480;-79
2024/01/06 08:42:37;;;;;;;10.77;6.82;;;;;;;;;;5024277;28;20518;-78
2024/01/06 08:45:03;;;;;;;10.30;6.60;;;;;;;;;;5025119;28;20033;-78
2024/01/06 08:47:29;;;;;;;11.18;6.50;;;;;;;;;;5023849;28;20033;-79
2024/01/06 08:49:54;;;;;;;9.75;6.70;;;;;;;;;;5025053;28;20036;-79
2024/01/06 08:52:20;;;;;;;9.95;6.70;;;;;;;;;;5026227;28;20052;-79
2024/01/06 08:54:45;;;;;;;10.40;6.03;;;;;;;;;;5022974;28;20022;-79
2024/01/06 08:57:10;;;;;;;10.95;6.80;;;;;;;;;;5023249;28;20108;-79
2024/01/06 08:59:36;;;;;;;11.25;6.32;;;;;;;;;;5022185;28;20033;-79
2024/01/06 09:02:02;;;;;;;9.55;6.65;;;;;;;;;;5029337;28;20033;-78
2024/01/06 09:04:27;;;;;;;10.55;6.18;;;;;;;;;;5029037;28;20026;-79
2024/01/06 09:06:53;;;;;;;9.18;6.32;;;;;;;;;;5029754;28;20036;-79
2024/01/06 09:09:18;;;;;;;11.60;6.38;;;;;;;;;;5028243;28;20026;-79
2024/01/06 09:11:44;;;;;;;10.02;6.53;;;;;;;;;;5023587;28;20025;-79
2024/01/06 09:14:12;;;;;;;9.98;6.18;;;;;;;;;;5028450;28;20028;-79
2024/01/06 09:16:38;;;;;;;10.93;6.10;;;;;;;;;;5029876;28;20025;-79
2024/01/06 09:19:03;;;;;;;10.20;6.53;;;;;;;;;;5028188;28;20087;-79
2024/01/06 09:21:29;;;;;;;9.93;6.30;;;;;;;;;;5043534;28;20030;-78
2024/01/06 09:23:54;;;;;;;9.70;6.35;;;;;;;;;;5030433;28;20438;-79
2024/01/06 09:26:20;;;;;;;10.05;6.43;;;;;;;;;;5022656;28;20491;-79
2024/01/06 09:28:45;;;;;;;9.93;6.70;;;;;;;;;;5030143;28;20109;-79
2024/01/06 09:31:10;;;;;;;9.40;6.05;;;;;;;;;;5032028;28;20052;-79
2024/01/06 09:33:36;;;;;;;10.45;6.82;;;;;;;;;;5033360;28;20116;-79
2024/01/06 09:36:02;;;;;;;10.32;6.47;;;;;;;;;;5031813;28;20471;-78
2024/01/06 09:38:28;;;;;;;10.60;6.63;;;;;;;;;;5035355;28;20487;-79
2024/01/06 09:40:55;;;;;;;11.02;6.75;;;;;;;;;;5029588;28;20056;-79
2024/01/06 09:43:20;;;;;;;9.70;6.60;;;;;;;;;;5045850;28;20542;-78
2024/01/06 09:46:03;;;;;;;16.33;7.05;;;;;;;;;;5033039;28;20037;-79
2024/01/06 09:48:31;;;;;;;;;;;;;;;;;;5028720;28;20025;-79
2024/01/06 09:51:01;;;;;;;10.80;6.70;;;;;;;;;;5024745;28;19943;-79
2024/01/06 09:53:33;;;;;;;11.30;5.97;;;;;;;;;;5029559;28;20030;-79
2024/01/06 09:55:59;;;;;;;10.02;6.63;;;;;;;;;;5029724;28;20029;-79
2024/01/06 09:58:29;;;;;;;10.13;6.75;;;;;;;;;;5028209;28;20037;-79
2024/01/06 10:00:56;;;;;;;10.70;7.32;;;;;;;;;;5024635;28;20073;-79
2024/01/06 10:03:21;;;;;;;11.18;6.68;;;;;;;;;;5028362;28;20025;-79
2024/01/06 10:05:48;;;;;;;10.90;6.65;;;;;;;;;;5013492;28;20398;-79
2024/01/06 10:08:13;;;;;;;11.68;6.30;;;;;;;;;;5031229;28;20033;-79
2024/01/06 10:10:39;;;;;;;11.43;6.80;;;;;;;;;;5037863;28;20037;-78
2024/01/06 10:13:06;;;;;;;11.43;6.50;;;;;;;;;;5027738;28;20029;-79
2024/01/06 10:15:31;;;;;;;9.55;6.45;;;;;;;;;;5026962;28;20069;-78
2024/01/06 10:17:58;;;;;;;11.40;6.72;;;;;;;;;;5031414;28;20068;-87
2024/01/06 10:20:25;;;;;;;11.55;6.50;;;;;;;;;;5028186;28;20511;-78
2024/01/06 10:22:51;;;;;;;9.93;6.13;;;;;;;;;;5025174;28;20029;-79
2024/01/06 10:25:16;;;;;;;10.10;6.00;;;;;;;;;;5021490;28;20060;-79
2024/01/06 10:27:42;;;;;;;9.40;6.10;;;;;;;;;;5024654;28;20029;-79
2024/01/06 10:30:09;;;;;;;10.98;7.10;;;;;;;;;;5022201;28;20033;-79
2024/01/06 10:32:36;;;;;;;9.68;5.97;;;;;;;;;;5023339;28;20044;-79
2024/01/06 10:35:03;;;;;;;9.13;6.03;;;;;;;;;;5026118;28;20026;-79
2024/01/06 10:37:29;;;;;;;11.30;6.38;;;;;;;;;;5023438;28;20056;-79
2024/01/06 10:40:06;;;;;;;8.85;5.88;;;;;;;;;;5021019;28;20868;-79
2024/01/06 10:42:32;;;;;;;10.75;6.90;;;;;;;;;;5001150;28;20029;-79
2024/01/06 10:44:59;;;;;;;10.35;6.53;;;;;;;;;;5019531;28;20044;-79
2024/01/06 10:47:26;;;;;;;10.55;6.85;;;;;;;;;;5022868;28;20040;-78
2024/01/06 10:49:54;;;;;;;10.50;6.60;;;;;;;;;;5024395;28;20029;-79
2024/01/06 10:52:20;;;;;;;9.60;6.55;;;;;;;;;;5024336;28;20026;-78
2024/01/06 10:54:50;;;;;;;9.10;6.30;;;;;;;;;;5025071;28;20478;-79
2024/01/06 10:57:18;;;;;;;8.93;6.32;;;;;;;;;;5025979;28;20025;-77
2024/01/06 10:59:48;;;;;;;10.70;6.82;;;;;;;;;;5024548;28;20029;-79
2024/01/06 11:02:16;;;;;;;9.80;6.93;;;;;;;;;;5022594;28;20025;-79
2024/01/06 11:04:47;;;;;;;10.10;6.40;;;;;;;;;;5024167;28;20057;-78
2024/01/06 11:07:20;;;;;;;9.70;6.32;;;;;;;;;;5038723;28;20392;-78
2024/01/06 11:10:07;;;;;;;13.32;6.90;;;;;;;;;;5025480;28;20095;-79
2024/01/06 11:12:33;;;;;;;12.70;6.95;;;;;;;;;;5026711;28;20033;-78
2024/01/06 11:14:58;;;;;;;10.48;7.30;;;;;;;;;;5031453;28;20160;-78
2024/01/06 11:17:53;;;;;;;11.05;6.80;;;;;;;;;;5026868;28;20166;-78
2024/01/06 11:20:20;;;;;;;10.57;7.10;;;;;;;;;;5010724;28;20049;-77
2024/01/06 11:22:45;;;;;;;10.68;6.90;;;;;;;;;;5026666;28;20492;-77
2024/01/06 11:25:15;;;;;;;10.68;6.78;;;;;;;;;;5025046;28;20044;-78
2024/01/06 11:27:42;;;;;;;10.43;6.82;;;;;;;;;;5024893;28;20036;-78
2024/01/06 11:30:23;;;;;;;10.23;6.88;;;;;;;;;;5026810;28;20033;-87
2024/01/06 11:32:52;;;;;;;10.88;7.25;;;;;;;;;;5027519;28;20024;-89
2024/01/06 11:35:18;;;;;;;10.75;7.78;;;;;;;;;;5022923;28;20029;-87
2024/01/06 11:37:45;;;;;;;10.85;7.13;;;;;;;;;;5027639;28;20045;-87
2024/01/06 11:40:23;;;;;;;10.77;7.32;;;;;;;;;;5024049;28;20028;-88
2024/01/06 11:42:57;;;;;;;10.63;7.85;;;;;;;;;;5023268;28;20124;-89
2024/01/06 11:45:25;;;;;;;10.07;7.28;;;;;;;;;;5026086;28;20615;-89
2024/01/06 11:47:56;;;;;;;10.95;7.45;;;;;;;;;;5041223;28;20403;-88
2024/01/06 11:50:23;;;;;;;12.48;7.32;;;;;;;;;;5036317;28;20125;-87
2024/01/06 11:52:49;;;;;;;14.15;7.75;;;;;;;;;;5026228;28;20063;-88
2024/01/06 11:55:17;;;;;;;12.15;7.28;;;;;;;;;;5020520;28;20041;-89
2024/01/06 11:57:42;;;;;;;11.18;6.82;;;;;;;;;;5027758;28;20540;-88
2024/01/06 12:00:08;;;;;;;11.57;7.45;;;;;;;;;;5020800;28;20029;-89
2024/01/06 12:02:34;;;;;;;10.52;7.57;;;;;;;;;;5024030;28;20387;-88
2024/01/06 12:04:59;;;;;;;11.05;7.18;;;;;;;;;;5036367;28;20035;-88
2024/01/06 12:07:25;;;;;;;11.38;7.38;;;;;;;;;;5022038;28;20069;-89
2024/01/06 12:10:00;;;;;;;9.20;6.93;;;;;;;;;;5017605;28;20390;-88
2024/01/06 12:12:25;;;;;;;11.02;7.63;;;;;;;;;;5024929;28;20037;-89
2024/01/06 12:14:51;;;;;;;10.60;7.00;;;;;;;;;;5021829;28;20030;-89
2024/01/06 12:17:16;;;;;;;9.63;6.72;;;;;;;;;;5026287;28;20513;-89
2024/01/06 12:19:42;;;;;;;11.00;6.88;;;;;;;;;;5016751;28;20530;-89
2024/01/06 12:22:13;;;;;;;10.18;6.97;;;;;;;;;;5024050;28;20069;-89
2024/01/06 12:24:38;;;;;;;10.02;6.45;;;;;;;;;;5025223;28;20028;-89
2024/01/06 12:27:08;;;;;;;10.18;6.82;;;;;;;;;;5024802;28;20558;-89
2024/01/06 12:29:37;;;;;;;10.80;6.20;;;;;;;;;;5024804;28;20025;-89
2024/01/06 12:32:03;;;;;;;9.20;5.65;;;;;;;;;;5024308;28;20112;-89
2024/01/06 12:34:29;;;;;;;9.02;6.05;;;;;;;;;;5020140;28;20510;-88
2024/01/06 12:36:58;;;;;;;8.38;5.85;;;;;;;;;;5024806;28;20036;-88
2024/01/06 12:39:27;;;;;;;8.20;5.63;;;;;;;;;;5017169;28;20124;-89
2024/01/06 12:41:54;;;;;;;8.57;5.10;;;;;;;;;;5024134;28;20033;-89
2024/01/06 12:44:19;;;;;;;8.25;5.20;;;;;;;;;;5023234;28;20083;-86
2024/01/06 12:46:46;;;;;;;9.57;5.85;;;;;;;;;;5021051;28;20025;-87
2024/01/06 12:49:12;;;;;;;8.48;5.60;;;;;;;;;;5036920;28;20051;-89
2024/01/06 12:51:37;;;;;;;7.97;5.32;;;;;;;;;;5023679;28;20520;-89
2024/01/06 12:54:03;;;;;;;9.02;5.28;;;;;;;;;;5026280;28;20337;-88
2024/01/06 12:56:29;;;;;;;8.40;5.93;;;;;;;;;;5017373;28;20112;-89
2024/01/06 12:58:55;;;;;;;7.47;5.22;;;;;;;;;;5001028;28;20533;-88
2024/01/06 13:01:20;;;;;;;10.85;5.47;;;;;;;;;;4998869;28;20043;-88
2024/01/06 13:03:45;;;;;;;8.55;5.68;;;;;;;;;;5025159;28;20029;-88
2024/01/06 13:06:12;;;;;;;9.93;5.43;;;;;;;;;;5027265;28;20033;-87
2024/01/06 13:08:38;;;;;;;8.60;5.80;;;;;;;;;;5028111;28;20033;-88
2024/01/06 13:11:04;;;;;;;8.73;6.03;;;;;;;;;;5028126;28;20546;-88
2024/01/06 13:13:31;;;;;;;10.15;5.75;;;;;;;;;;5020601;28;20067;-88
2024/01/06 13:15:56;;;;;;;8.80;5.50;;;;;;;;;;5025392;28;20092;-87
2024/01/06 13:18:22;;;;;;;9.48;5.60;;;;;;;;;;5026249;28;20647;-88
2024/01/06 13:20:49;;;;;;;8.23;5.72;;;;;;;;;;5021243;28;20060;-88
2024/01/06 13:23:15;;;;;;;10.43;6.60;;;;;;;;;;5022693;28;20483;-88
2024/01/06 13:25:40;;;;;;;11.00;6.43;;;;;;;;;;5024089;28;20393;-87
2024/01/06 13:28:07;;;;;;;11.27;6.53;;;;;;;;;;5019142;28;20262;-88
2024/01/06 13:30:33;;;;;;;10.45;6.78;;;;;;;;;;5029766;28;20024;-87
2024/01/06 13:32:59;;;;;;;9.15;6.43;;;;;;;;;;5024524;28;20025;-87
2024/01/06 13:35:25;;;;;;;10.10;6.55;;;;;;;;;;5022921;28;20616;-87
2024/01/06 13:37:52;;;;;;;11.35;7.10;;;;;;;;;;5020927;28;20038;-88
2024/01/06 13:40:21;;;;;;;10.30;7.28;;;;;;;;;;5041415;28;20029;-89
2024/01/06 13:42:54;;;;;;;12.90;6.95;;;;;;;;;;5028225;28;20270;-88
2024/01/06 13:45:19;;;;;;;11.07;6.55;;;;;;;;;;5020529;28;20025;-87
2024/01/06 13:47:45;;;;;;;10.30;7.15;;;;;;;;;;5008168;28;20411;-89
2024/01/06 13:50:16;;;;;;;11.02;6.97;;;;;;;;;;5023794;28;20032;-89
2024/01/06 13:52:43;;;;;;;11.35;7.05;;;;;;;;;;5006601;28;20037;-89
2024/01/06 13:55:10;;;;;;;11.15;7.45;;;;;;;;;;5021815;28;20483;-90
2024/01/06 13:57:36;;;;;;;10.35;6.95;;;;;;;;;;5021402;28;20029;-88
2024/01/06 14:00:04;;;;;;;14.48;7.10;;;;;;;;;;5023649;28;20172;-88
2024/01/06 14:02:31;;;;;;;11.00;7.63;;;;;;;;;;5019777;28;20035;-89
2024/01/06 14:04:56;;;;;;;12.60;8.05;;;;;;;;;;5018187;28;20584;-89
2024/01/06 14:07:22;;;;;;;12.73;7.53;;;;;;;;;;5021234;28;20664;-89
2024/01/06 14:09:48;;;;;;;13.20;8.02;;;;;;;;;;5020577;28;20052;-88
2024/01/06 14:12:15;;;;;;;13.52;7.63;;;;;;;;;;5023759;28;20029;-87
2024/01/06 14:14:43;;;;;;;11.93;7.53;;;;;;;;;;5005430;28;20100;-88
2024/01/06 14:17:08;;;;;;;12.77;7.90;;;;;;;;;;5029036;28;20033;-88
2024/01/06 14:19:34;;;;;;;12.65;8.00;;;;;;;;;;5031089;28;20645;-89
2024/01/06 14:21:59;;;;;;;12.57;8.25;;;;;;;;;;5024886;28;20026;-91
2024/01/06 14:24:25;;;;;;;15.55;8.50;;;;;;;;;;5021748;28;20080;-89
2024/01/06 14:26:52;;;;;;;13.55;9.13;;;;;;;;;;5028728;28;20055;-90
2024/01/06 14:29:18;;;;;;;13.38;8.52;;;;;;;;;;5027851;28;20036;-90
2024/01/06 14:31:44;;;;;;;14.90;8.63;;;;;;;;;;5022936;28;20026;-91
2024/01/06 14:34:09;;;;;;;13.27;8.38;;;;;;;;;;5022744;28;20037;-89